createdAt,value
2018-11-25T00:00:46.770Z,25.07
2018-11-25T00:03:15.328Z,24.37
2018-11-25T00:05:43.786Z,25.10
2018-11-25T00:08:12.270Z,23.97
2018-11-25T00:10:40.754Z,24.67
2018-11-25T00:13:09.269Z,23.97
2018-11-25T00:17:02.114Z,26.00
2018-11-25T00:19:30.607Z,23.70
2018-11-25T00:21:59.092Z,25.93
2018-11-25T00:24:27.598Z,25.27
2018-11-25T00:26:56.095Z,25.03
2018-11-25T00:29:24.647Z,24.33
2018-11-25T00:31:53.217Z,25.30
2018-11-25T00:34:21.731Z,26.60
2018-11-25T00:36:50.186Z,25.13
2018-11-25T00:39:18.699Z,23.77
2018-11-25T00:41:47.242Z,26.80
2018-11-25T00:44:15.768Z,26.07
2018-11-25T00:46:44.281Z,21.80
2018-11-25T00:49:12.803Z,21.57
2018-11-25T00:51:41.287Z,22.40
2018-11-25T00:54:09.806Z,22.50
2018-11-25T00:56:38.302Z,22.80
2018-11-25T00:59:06.853Z,21.63
2018-11-25T01:01:35.331Z,20.87
2018-11-25T01:04:03.867Z,22.47
2018-11-25T01:06:32.395Z,22.93
2018-11-25T01:09:00.914Z,21.47
2018-11-25T01:11:29.397Z,21.73
2018-11-25T01:13:57.973Z,18.40
2018-11-25T01:16:26.449Z,20.40
2018-11-25T01:18:54.930Z,20.50
2018-11-25T01:21:23.410Z,21.43
2018-11-25T01:23:51.916Z,19.83
2018-11-25T01:26:20.385Z,20.43
2018-11-25T01:28:48.909Z,21.67
2018-11-25T01:31:17.356Z,21.13
2018-11-25T01:33:45.859Z,21.20
2018-11-25T01:36:14.327Z,19.47
2018-11-25T01:38:42.854Z,24.13
2018-11-25T01:41:11.355Z,20.63
2018-11-25T01:43:39.850Z,19.77
2018-11-25T01:46:08.313Z,20.50
2018-11-25T01:48:36.838Z,20.30
2018-11-25T01:51:05.488Z,21.50
2018-11-25T01:53:34.019Z,20.63
2018-11-25T01:56:02.519Z,19.67
2018-11-25T01:58:31.008Z,22.73
2018-11-25T02:00:59.487Z,21.27
2018-11-25T02:03:27.966Z,20.70
2018-11-25T02:05:56.458Z,17.90
2018-11-25T02:08:24.974Z,18.80
2018-11-25T02:10:53.660Z,19.93
2018-11-25T02:13:22.162Z,21.70
2018-11-25T02:15:50.663Z,18.57
2018-11-25T02:18:19.134Z,18.50
2018-11-25T02:20:47.647Z,19.17
2018-11-25T02:23:16.126Z,21.07
2018-11-25T02:25:44.653Z,18.47
2018-11-25T02:28:13.121Z,18.13
2018-11-25T02:30:41.614Z,18.67
2018-11-25T02:33:10.070Z,17.47
2018-11-25T02:35:38.588Z,18.27
2018-11-25T02:38:07.102Z,18.80
2018-11-25T02:40:35.617Z,18.93
2018-11-25T02:43:04.100Z,17.73
2018-11-25T02:45:32.645Z,20.83
2018-11-25T02:48:01.124Z,19.23
2018-11-25T02:50:31.108Z,20.17
2018-11-25T02:53:01.579Z,19.00
2018-11-25T02:55:30.125Z,19.90
2018-11-25T02:57:58.579Z,20.80
2018-11-25T03:00:27.104Z,19.27
2018-11-25T03:02:55.562Z,21.93
2018-11-25T03:05:24.077Z,22.67
2018-11-25T03:07:52.607Z,23.43
2018-11-25T03:10:21.110Z,22.47
2018-11-25T03:12:49.610Z,23.00
2018-11-25T03:15:18.528Z,26.47
2018-11-25T03:17:47.023Z,23.47
2018-11-25T03:20:16.435Z,24.63
2018-11-25T03:22:44.978Z,24.70
2018-11-25T03:25:17.495Z,23.83
2018-11-25T03:27:46.094Z,22.50
2018-11-25T03:30:16.385Z,21.27
2018-11-25T03:32:45.682Z,20.50
2018-11-25T03:35:14.663Z,19.73
2018-11-25T03:37:43.158Z,18.93
2018-11-25T03:40:12.813Z,19.03
2018-11-25T03:42:41.328Z,18.50
2018-11-25T03:45:14.884Z,17.33
2018-11-25T03:47:43.391Z,16.70
2018-11-25T03:50:12.667Z,16.70
2018-11-25T03:52:41.147Z,15.87
2018-11-25T03:55:13.398Z,16.73
2018-11-25T03:57:41.903Z,16.73
2018-11-25T04:00:15.002Z,17.07
2018-11-25T04:02:43.579Z,16.03
2018-11-25T04:05:13.478Z,15.73
2018-11-25T04:07:41.983Z,15.67
2018-11-25T04:10:12.723Z,15.47
2018-11-25T04:12:41.226Z,16.17
2018-11-25T04:15:13.769Z,14.83
2018-11-25T04:17:42.272Z,15.33
2018-11-25T04:20:13.874Z,14.80
2018-11-25T04:22:42.358Z,14.73
2018-11-25T04:25:11.589Z,13.80
2018-11-25T04:27:40.100Z,13.97
2018-11-25T04:30:12.762Z,15.00
2018-11-25T04:32:41.302Z,14.97
2018-11-25T04:35:10.835Z,14.73
2018-11-25T04:37:39.369Z,15.13
2018-11-25T04:40:09.439Z,15.57
2018-11-25T04:42:37.953Z,15.70
2018-11-25T04:45:08.259Z,15.73
2018-11-25T04:47:36.734Z,17.17
2018-11-25T04:50:10.222Z,16.43
2018-11-25T04:52:38.695Z,16.50
2018-11-25T04:55:08.885Z,16.00
2018-11-25T04:57:37.372Z,15.93
2018-11-25T05:00:09.178Z,16.03
2018-11-25T05:02:37.678Z,16.67
2018-11-25T05:05:07.768Z,16.17
2018-11-25T05:07:36.282Z,17.30
2018-11-25T05:10:06.056Z,16.43
2018-11-25T05:12:34.558Z,16.70
2018-11-25T05:15:03.075Z,16.47
2018-11-25T05:17:31.568Z,17.33
2018-11-25T05:20:00.093Z,17.37
2018-11-25T05:22:28.573Z,17.50
2018-11-25T05:24:57.069Z,17.50
2018-11-25T05:27:25.544Z,17.77
2018-11-25T05:29:54.051Z,17.73
2018-11-25T05:32:22.521Z,18.80
2018-11-25T05:34:51.019Z,19.07
2018-11-25T05:37:19.502Z,18.63
2018-11-25T05:39:49.865Z,17.87
2018-11-25T05:42:18.362Z,18.37
2018-11-25T05:44:46.847Z,18.93
2018-11-25T05:47:15.293Z,18.13
2018-11-25T05:49:43.825Z,17.07
2018-11-25T05:52:12.287Z,17.83
2018-11-25T05:54:40.790Z,17.13
2018-11-25T05:57:09.278Z,17.47
2018-11-25T05:59:37.742Z,18.63
2018-11-25T06:02:06.622Z,17.77
2018-11-25T06:04:35.120Z,18.57
2018-11-25T06:07:03.588Z,17.47
2018-11-25T06:09:32.097Z,17.40
2018-11-25T06:12:00.598Z,18.17
2018-11-25T06:14:29.095Z,18.67
2018-11-25T06:17:06.399Z,19.70
2018-11-25T06:19:34.924Z,17.90
2018-11-25T06:22:03.428Z,18.43
2018-11-25T06:24:31.905Z,16.90
2018-11-25T06:27:00.406Z,17.33
2018-11-25T06:29:28.926Z,19.67
2018-11-25T06:31:57.443Z,18.83
2018-11-25T06:34:25.891Z,18.63
2018-11-25T06:36:54.393Z,19.93
2018-11-25T06:39:22.851Z,21.27
2018-11-25T06:41:51.334Z,20.87
2018-11-25T06:44:19.819Z,21.73
2018-11-25T06:46:48.430Z,21.00
2018-11-25T06:49:16.916Z,22.00
2018-11-25T06:51:45.422Z,22.00
2018-11-25T06:54:13.882Z,22.63
2018-11-25T06:56:42.397Z,21.83
2018-11-25T06:59:10.883Z,22.47
2018-11-25T07:01:39.372Z,21.53
2018-11-25T07:04:08.732Z,21.90
2018-11-25T07:06:37.276Z,21.27
2018-11-25T07:09:11.211Z,19.80
2018-11-25T07:11:39.735Z,20.13
2018-11-25T07:14:08.306Z,20.40
2018-11-25T07:16:36.854Z,21.30
2018-11-25T07:19:05.939Z,19.93
2018-11-25T07:21:34.636Z,19.83
2018-11-25T07:24:03.142Z,18.70
2018-11-25T07:26:31.667Z,19.70
2018-11-25T07:29:01.499Z,19.37
2018-11-25T07:31:30.019Z,21.20
2018-11-25T07:33:58.486Z,23.83
2018-11-25T07:36:26.969Z,23.10
2018-11-25T07:38:55.578Z,22.70
2018-11-25T07:41:24.054Z,21.97
2018-11-25T07:43:52.502Z,22.13
2018-11-25T07:46:20.999Z,21.53
2018-11-25T07:48:49.445Z,20.67
2018-11-25T07:51:17.949Z,20.70
2018-11-25T07:53:46.443Z,20.20
2018-11-25T07:56:14.955Z,21.67
2018-11-25T07:58:43.443Z,21.27
2018-11-25T08:01:11.922Z,19.50
2018-11-25T08:03:40.398Z,19.87
2018-11-25T08:06:08.906Z,19.43
2018-11-25T08:08:37.405Z,18.17
2018-11-25T08:11:06.114Z,18.63
2018-11-25T08:13:34.643Z,18.83
2018-11-25T08:16:03.193Z,18.53
2018-11-25T08:18:31.683Z,19.17
2018-11-25T08:21:00.201Z,18.93
2018-11-25T08:23:28.709Z,19.47
2018-11-25T08:25:57.203Z,18.83
2018-11-25T08:28:25.707Z,18.27
2018-11-25T08:30:54.225Z,19.53
2018-11-25T08:33:22.708Z,19.70
2018-11-25T08:35:51.252Z,19.30
2018-11-25T08:38:19.735Z,19.07
2018-11-25T08:40:48.347Z,19.47
2018-11-25T08:43:16.822Z,20.87
2018-11-25T08:45:45.335Z,17.83
2018-11-25T08:48:13.802Z,17.60
2018-11-25T08:50:42.306Z,16.83
2018-11-25T08:53:10.786Z,16.03
2018-11-25T08:55:39.282Z,16.77
2018-11-25T08:58:07.977Z,16.10
2018-11-25T09:00:37.076Z,15.87
2018-11-25T09:03:05.600Z,16.20
2018-11-25T09:05:34.927Z,16.73
2018-11-25T09:08:02.676Z,16.40
2018-11-25T09:10:31.185Z,17.03
2018-11-25T09:12:59.727Z,17.60
2018-11-25T09:15:29.622Z,17.13
2018-11-25T09:17:58.269Z,17.20
2018-11-25T09:20:26.781Z,17.77
2018-11-25T09:22:55.329Z,16.60
2018-11-25T09:25:28.883Z,17.60
2018-11-25T09:27:58.163Z,17.57
2018-11-25T09:30:27.666Z,17.53
2018-11-25T09:32:56.213Z,16.57
2018-11-25T09:35:25.242Z,15.97
2018-11-25T09:37:53.773Z,16.13
2018-11-25T09:40:23.546Z,15.67
2018-11-25T09:42:52.099Z,15.73
2018-11-25T09:45:21.113Z,16.37
2018-11-25T09:47:50.059Z,15.57
2018-11-25T09:50:20.403Z,14.83
2018-11-25T09:52:48.942Z,14.97
2018-11-25T09:55:18.427Z,14.63
2018-11-25T09:57:50.188Z,15.43
2018-11-25T10:00:28.399Z,15.03
2018-11-25T10:02:56.948Z,14.03
2018-11-25T10:05:25.475Z,14.07
2018-11-25T10:07:54.022Z,13.33
2018-11-25T10:10:23.574Z,13.67
2018-11-25T10:12:52.136Z,12.67
2018-11-25T10:15:21.836Z,13.57
2018-11-25T10:17:50.372Z,13.50
2018-11-25T10:20:20.007Z,11.73
2018-11-25T10:22:48.541Z,11.17
2018-11-25T10:25:17.442Z,10.67
2018-11-25T10:27:46.028Z,11.57
2018-11-25T10:30:23.150Z,11.27
2018-11-25T10:32:52.778Z,10.83
2018-11-25T10:35:21.298Z,10.97
2018-11-25T10:37:49.830Z,10.13
2018-11-25T10:40:19.439Z,10.20
2018-11-25T10:42:48.006Z,11.23
2018-11-25T10:45:17.605Z,10.87
2018-11-25T10:47:46.148Z,10.10
2018-11-25T10:50:16.561Z,8.17
2018-11-25T10:52:45.107Z,8.50
2018-11-25T10:55:14.501Z,8.33
2018-11-25T10:57:43.936Z,9.60
2018-11-25T11:00:36.550Z,8.10
2018-11-25T11:03:11.571Z,7.87
2018-11-25T11:05:45.240Z,7.83
2018-11-25T11:08:13.768Z,8.27
2018-11-25T11:10:42.263Z,7.60
2018-11-25T11:13:10.819Z,6.67
2018-11-25T11:15:39.347Z,13.07
2018-11-25T11:18:08.222Z,26.70
2018-11-25T11:20:36.730Z,10.17
2018-11-25T11:23:05.327Z,7.20
2018-11-25T11:25:33.823Z,7.93
2018-11-25T11:28:02.363Z,7.30
2018-11-25T11:30:30.887Z,7.37
2018-11-25T11:32:59.415Z,12.23
2018-11-25T11:35:27.946Z,7.40
2018-11-25T11:37:56.480Z,7.10
2018-11-25T11:40:24.969Z,9.03
2018-11-25T11:42:53.510Z,9.93
2018-11-25T11:45:21.997Z,5.93
2018-11-25T11:47:50.523Z,9.17
2018-11-25T11:50:20.544Z,5.63
2018-11-25T11:52:49.061Z,5.43
2018-11-25T11:55:18.309Z,5.40
2018-11-25T11:57:47.590Z,4.73
2018-11-25T12:00:25.644Z,4.70
2018-11-25T12:02:54.189Z,5.10
2018-11-25T12:05:22.689Z,5.10
2018-11-25T12:07:51.227Z,5.57
2018-11-25T12:10:20.031Z,5.33
2018-11-25T12:12:48.566Z,5.60
2018-11-25T12:15:19.648Z,6.27
2018-11-25T12:17:48.167Z,5.53
2018-11-25T12:20:16.630Z,5.80
2018-11-25T12:22:45.564Z,5.10
2018-11-25T12:25:15.955Z,5.27
2018-11-25T12:27:44.530Z,4.93
2018-11-25T12:30:15.033Z,5.13
2018-11-25T12:32:44.551Z,5.23
2018-11-25T12:35:14.094Z,4.80
2018-11-25T12:37:42.836Z,5.03
2018-11-25T12:40:12.892Z,4.70
2018-11-25T12:42:41.941Z,4.90
2018-11-25T12:45:12.355Z,6.30
2018-11-25T12:47:40.862Z,4.77
2018-11-25T12:50:11.110Z,4.87
2018-11-25T12:52:39.660Z,5.20
2018-11-25T12:55:11.926Z,5.27
2018-11-25T12:57:40.624Z,5.33
2018-11-25T13:00:16.947Z,4.90
2018-11-25T13:02:45.614Z,5.10
2018-11-25T13:05:17.493Z,5.57
2018-11-25T13:07:46.010Z,5.40
2018-11-25T13:10:14.736Z,5.80
2018-11-25T13:12:43.250Z,5.80
2018-11-25T13:15:11.780Z,5.60
2018-11-25T13:17:40.252Z,6.10
2018-11-25T13:20:12.101Z,6.60
2018-11-25T13:22:40.968Z,6.40
2018-11-25T13:25:10.882Z,6.77
2018-11-25T13:27:39.477Z,6.70
2018-11-25T13:30:12.835Z,7.23
2018-11-25T13:32:41.446Z,6.33
2018-11-25T13:35:10.463Z,6.10
2018-11-25T13:37:39.017Z,5.87
2018-11-25T13:40:10.203Z,6.27
2018-11-25T13:42:38.712Z,6.20
2018-11-25T13:45:06.014Z,6.40
2018-11-25T13:47:34.506Z,6.47
2018-11-25T13:50:03.066Z,6.73
2018-11-25T13:52:31.570Z,7.17
2018-11-25T13:55:01.358Z,6.83
2018-11-25T13:57:29.860Z,6.97
2018-11-25T13:59:58.454Z,6.43
2018-11-25T14:02:27.016Z,7.17
2018-11-25T14:04:55.994Z,7.37
2018-11-25T14:07:24.481Z,7.80
2018-11-25T14:09:53.003Z,7.30
2018-11-25T14:12:21.515Z,8.27
2018-11-25T14:14:50.039Z,7.33
2018-11-25T14:17:18.535Z,8.50
2018-11-25T14:19:47.084Z,9.00
2018-11-25T14:22:15.671Z,7.73
2018-11-25T14:24:44.206Z,7.53
2018-11-25T14:27:12.721Z,8.37
2018-11-25T14:29:41.235Z,8.10
2018-11-25T14:32:10.035Z,7.70
2018-11-25T14:34:38.545Z,8.17
2018-11-25T14:37:07.108Z,7.57
2018-11-25T14:39:35.647Z,8.67
2018-11-25T14:42:04.166Z,7.40
2018-11-25T14:44:32.670Z,7.67
2018-11-25T14:47:01.262Z,8.13
2018-11-25T14:49:30.064Z,7.73
2018-11-25T14:51:59.823Z,8.10
2018-11-25T14:54:28.323Z,8.17
2018-11-25T14:56:56.936Z,8.73
2018-11-25T14:59:25.407Z,8.03
2018-11-25T15:01:53.975Z,8.53
2018-11-25T15:04:22.503Z,8.13
2018-11-25T15:06:51.059Z,9.03
2018-11-25T15:09:19.564Z,8.53
2018-11-25T15:11:48.080Z,9.20
2018-11-25T15:14:16.615Z,13.07
2018-11-25T15:16:45.178Z,10.50
2018-11-25T15:19:13.670Z,12.37
2018-11-25T15:21:42.243Z,11.33
2018-11-25T15:24:10.780Z,10.40
2018-11-25T15:26:39.348Z,11.23
2018-11-25T15:29:07.866Z,11.37
2018-11-25T15:31:36.423Z,11.87
2018-11-25T15:34:04.980Z,13.87
2018-11-25T15:36:33.544Z,13.37
2018-11-25T15:39:02.058Z,12.83
2018-11-25T15:41:30.598Z,11.53
2018-11-25T15:43:59.107Z,13.53
2018-11-25T15:46:27.637Z,12.30
2018-11-25T15:48:56.182Z,11.10
2018-11-25T15:51:25.610Z,9.90
2018-11-25T15:53:54.159Z,11.33
2018-11-25T15:56:22.840Z,9.60
2018-11-25T15:58:52.242Z,9.73
2018-11-25T16:01:20.786Z,9.70
2018-11-25T16:03:49.315Z,9.33
2018-11-25T16:06:24.287Z,10.00
2018-11-25T16:08:52.826Z,9.77
2018-11-25T16:11:21.390Z,10.20
2018-11-25T16:13:49.899Z,10.47
2018-11-25T16:16:18.416Z,10.60
2018-11-25T16:18:46.917Z,11.20
2018-11-25T16:21:15.478Z,12.77
2018-11-25T16:23:43.959Z,10.40
2018-11-25T16:26:50.773Z,10.30
2018-11-25T16:29:23.770Z,9.70
2018-11-25T16:31:52.294Z,10.63
2018-11-25T16:34:20.794Z,10.93
2018-11-25T16:36:49.988Z,11.87
2018-11-25T16:39:18.482Z,11.03
2018-11-25T16:41:47.005Z,10.00
2018-11-25T16:44:15.522Z,10.47
2018-11-25T16:46:44.041Z,10.93
2018-11-25T16:49:12.648Z,11.30
2018-11-25T16:51:41.180Z,11.27
2018-11-25T16:54:09.770Z,11.00
2018-11-25T16:56:38.255Z,10.60
2018-11-25T16:59:06.810Z,11.23
2018-11-25T17:01:35.322Z,10.63
2018-11-25T17:04:03.866Z,10.03
2018-11-25T17:06:32.958Z,10.83
2018-11-25T17:09:01.472Z,10.80
2018-11-25T17:11:31.088Z,10.77
2018-11-25T17:13:59.635Z,11.20
2018-11-25T17:16:28.150Z,10.40
2018-11-25T17:18:56.698Z,9.97
2018-11-25T17:21:25.175Z,9.73
2018-11-25T17:23:54.818Z,8.57
2018-11-25T17:26:23.307Z,9.53
2018-11-25T17:28:51.828Z,9.90
2018-11-25T17:31:20.390Z,9.87
2018-11-25T17:33:48.891Z,8.57
2018-11-25T17:36:17.410Z,8.87
2018-11-25T17:38:45.924Z,8.17
2018-11-25T17:41:14.414Z,8.20
2018-11-25T17:43:42.916Z,7.30
2018-11-25T17:46:11.938Z,8.73
2018-11-25T17:48:40.455Z,8.20
2018-11-25T17:51:08.950Z,7.77
2018-11-25T17:53:37.807Z,7.30
2018-11-25T17:56:06.823Z,6.70
2018-11-25T17:58:35.394Z,8.07
2018-11-25T18:01:06.047Z,8.53
2018-11-25T18:03:36.173Z,7.67
2018-11-25T18:06:04.858Z,7.13
2018-11-25T18:08:33.454Z,6.53
2018-11-25T18:11:02.062Z,6.23
2018-11-25T18:13:34.051Z,7.37
2018-11-25T18:16:03.826Z,6.70
2018-11-25T18:18:50.103Z,7.47
2018-11-25T18:21:21.607Z,7.53
2018-11-25T18:23:50.123Z,8.90
2018-11-25T18:26:18.706Z,10.43
2018-11-25T18:28:47.226Z,10.77
2018-11-25T18:31:15.721Z,10.87
2018-11-25T18:33:44.345Z,11.30
2018-11-25T18:36:14.325Z,11.20
2018-11-25T18:38:42.857Z,9.93
2018-11-25T18:41:11.411Z,9.50
2018-11-25T18:43:40.205Z,9.97
2018-11-25T18:46:08.759Z,9.90
2018-11-25T18:48:39.443Z,9.63
2018-11-25T18:51:07.983Z,9.53
2018-11-25T18:53:37.714Z,10.37
2018-11-25T18:56:06.518Z,9.83
2018-11-25T18:58:35.022Z,10.20
2018-11-25T19:01:13.910Z,10.07
2018-11-25T19:03:44.005Z,10.53
2018-11-25T19:06:12.551Z,11.23
2018-11-25T19:08:41.195Z,10.00
2018-11-25T19:11:09.695Z,10.23
2018-11-25T19:13:38.213Z,10.20
2018-11-25T19:16:06.798Z,9.20
2018-11-25T19:18:35.610Z,9.70
2018-11-25T19:21:04.112Z,10.53
2018-11-25T19:23:32.610Z,10.60
2018-11-25T19:26:01.091Z,10.23
2018-11-25T19:28:29.608Z,11.17
2018-11-25T19:30:58.084Z,12.03
2018-11-25T19:33:28.047Z,11.30
2018-11-25T19:35:56.549Z,11.20
2018-11-25T19:38:25.033Z,12.17
2018-11-25T19:40:53.534Z,12.77
2018-11-25T19:43:22.075Z,13.47
2018-11-25T19:45:50.556Z,11.20
2018-11-25T19:48:19.060Z,9.20
2018-11-25T19:50:47.559Z,8.60
2018-11-25T19:53:16.093Z,8.60
2018-11-25T19:55:44.578Z,8.30
2018-11-25T19:58:13.096Z,9.07
2018-11-25T20:00:41.570Z,9.23
2018-11-25T20:03:10.061Z,8.97
2018-11-25T20:05:38.600Z,9.37
2018-11-25T20:08:07.778Z,8.97
2018-11-25T20:10:36.301Z,10.37
2018-11-25T20:13:05.131Z,9.03
2018-11-25T20:15:33.666Z,8.67
2018-11-25T20:18:02.170Z,8.80
2018-11-25T20:20:30.698Z,10.10
2018-11-25T20:22:59.235Z,11.10
2018-11-25T20:25:27.740Z,9.10
2018-11-25T20:27:56.963Z,8.50
2018-11-25T20:30:29.016Z,9.03
2018-11-25T20:33:02.695Z,8.63
2018-11-25T20:35:31.226Z,9.70
2018-11-25T20:38:05.083Z,9.40
2018-11-25T20:40:33.627Z,9.00
2018-11-25T20:43:02.114Z,8.33
2018-11-25T20:45:39.084Z,8.43
2018-11-25T20:48:04.453Z,9.23
2018-11-25T20:50:32.977Z,9.40
2018-11-25T20:53:06.683Z,8.20
2018-11-25T20:55:35.183Z,8.03
2018-11-25T20:58:03.682Z,8.50
2018-11-25T21:01:56.662Z,8.47
2018-11-25T21:04:25.169Z,7.97
2018-11-25T21:06:53.634Z,8.70
2018-11-25T21:09:22.182Z,7.93
2018-11-25T21:11:50.654Z,8.73
2018-11-25T21:14:19.200Z,8.93
2018-11-25T21:16:47.703Z,8.87
2018-11-25T21:19:16.180Z,9.03
2018-11-25T21:21:44.711Z,9.20
2018-11-25T21:24:13.203Z,8.87
2018-11-25T21:26:41.839Z,9.10
2018-11-25T21:29:10.501Z,9.67
2018-11-25T21:31:39.025Z,9.13
2018-11-25T21:34:07.526Z,10.17
2018-11-25T21:36:36.020Z,9.83
2018-11-25T21:39:07.352Z,9.60
2018-11-25T21:41:35.858Z,9.97
2018-11-25T21:44:04.382Z,10.03
2018-11-25T21:46:32.857Z,10.37
2018-11-25T21:49:01.326Z,10.83
2018-11-25T21:51:29.913Z,9.93
2018-11-25T21:53:58.411Z,11.00
2018-11-25T21:56:26.944Z,9.67
2018-11-25T21:58:55.419Z,10.67
2018-11-25T22:01:23.963Z,9.90
2018-11-25T22:03:52.445Z,11.53
2018-11-25T22:06:20.955Z,10.10
2018-11-25T22:08:49.938Z,10.87
2018-11-25T22:11:18.466Z,11.20
2018-11-25T22:13:46.942Z,11.30
2018-11-25T22:16:15.461Z,11.17
2018-11-25T22:18:43.958Z,10.90
2018-11-25T22:21:12.477Z,10.67
2018-11-25T22:23:40.934Z,11.07
2018-11-25T22:26:09.541Z,11.03
2018-11-25T22:28:38.021Z,10.77
2018-11-25T22:31:07.210Z,10.37
2018-11-25T22:33:35.751Z,10.73
2018-11-25T22:36:04.309Z,10.13
2018-11-25T22:38:32.814Z,10.57
2018-11-25T22:41:01.344Z,10.40
2018-11-25T22:43:29.806Z,11.43
2018-11-25T22:45:58.328Z,11.17
2018-11-25T22:48:26.817Z,13.00
2018-11-25T22:50:55.367Z,12.20
2018-11-25T22:53:23.889Z,12.00
2018-11-25T22:55:52.399Z,12.73
2018-11-25T22:58:20.950Z,12.33
2018-11-25T23:00:52.542Z,12.73
2018-11-25T23:03:22.119Z,12.70
2018-11-25T23:08:02.289Z,12.97
2018-11-25T23:10:30.813Z,11.93
2018-11-25T23:12:59.370Z,12.10
2018-11-25T23:15:27.875Z,13.10
2018-11-25T23:17:56.394Z,13.47
2018-11-25T23:20:24.891Z,12.70
2018-11-25T23:22:53.474Z,12.90
2018-11-25T23:25:21.982Z,12.80
2018-11-25T23:27:50.507Z,12.93
2018-11-25T23:30:18.986Z,12.67
2018-11-25T23:32:47.510Z,12.80
2018-11-25T23:35:20.463Z,11.93
2018-11-25T23:37:48.974Z,12.20
2018-11-25T23:40:17.461Z,13.00
2018-11-25T23:42:46.052Z,12.20
2018-11-25T23:45:15.658Z,12.50
2018-11-25T23:47:44.226Z,12.93
2018-11-25T23:50:13.691Z,12.37
2018-11-25T23:52:43.230Z,13.67
2018-11-25T23:55:13.801Z,13.73
2018-11-25T23:57:42.359Z,13.47
